Time;durP1;ratioP1;P1;durP2;ratioP2;P2;SDS_P1;SDS_P2;PMS_P1;PMS_P2;Temp;Humidity;BMP_temperature;BMP_pressure;BME280_temperature;BME280_humidity;BME280_pressure;Samples;Min_cycle;Max_cycle;Signal;HPM_P1;HPM_P2
2023/10/04 06:52:51;;;;;;;7.30;2.60;;;;;;;12.66;96.86;97481.05;104518;1300;545863;-88
2023/10/04 06:55:20;;;;;;;3.70;2.40;;;;;;;12.66;97.27;97484.50;106370;1291;22645;-87
2023/10/04 06:58:11;;;;;;;5.40;1.80;;;;;;;12.66;97.44;97483.86;109170;1292;138108;-88
2023/10/04 07:00:38;;;;;;;4.00;1.40;;;;;;;12.65;97.15;97487.80;107863;1278;23332;-88
2023/10/04 07:03:04;;;;;;;4.30;1.50;;;;;;;12.63;96.73;97490.05;106513;1288;22547;-88
2023/10/04 07:05:35;;;;;;;3.90;1.40;;;;;;;12.60;96.06;97494.90;105808;1289;535360;-87
2023/10/04 07:08:04;;;;;;;2.90;1.20;;;;;;;12.60;95.42;97499.82;106486;1289;24218;-88
2023/10/04 07:10:30;;;;;;;2.70;1.40;;;;;;;12.61;95.19;97509.62;106419;1285;138332;-88
2023/10/04 07:12:58;;;;;;;4.00;1.20;;;;;;;12.60;93.65;97507.28;106972;1282;23136;-87
2023/10/04 07:15:27;;;;;;;3.20;1.10;;;;;;;12.58;93.97;97507.77;106862;1282;24361;-87
2023/10/04 07:17:54;;;;;;;2.00;1.20;;;;;;;12.57;93.40;97503.21;106760;1282;23886;-87
2023/10/04 07:20:24;;;;;;;4.40;1.30;;;;;;;12.61;92.76;97499.33;106877;1283;22661;-87
2023/10/04 07:22:58;;;;;;;2.40;1.00;;;;;;;12.64;91.69;97493.12;109801;1282;138686;-88
2023/10/04 07:25:28;;;;;;;3.30;1.10;;;;;;;12.67;92.16;97489.13;109883;1270;22226;-88
2023/10/04 07:27:56;;;;;;;4.30;1.20;;;;;;;12.69;91.42;97486.27;109685;1282;138812;-88
2023/10/04 07:30:25;;;;;;;2.00;1.00;;;;;;;12.71;90.66;97492.38;109959;1282;22456;-88
2023/10/04 07:32:52;;;;;;;2.60;1.30;;;;;;;12.75;90.68;97496.30;109881;1282;23231;-89
2023/10/04 07:35:21;;;;;;;2.90;1.20;;;;;;;12.79;90.99;97494.61;109902;1281;139066;-88
2023/10/04 07:37:48;;;;;;;3.80;1.30;;;;;;;12.83;90.51;97501.44;109386;1282;22557;-88
2023/10/04 07:40:16;;;;;;;7.30;2.00;;;;;;;12.84;89.94;97503.23;106810;1282;137928;-88
2023/10/04 07:42:48;;;;;;;3.10;1.20;;;;;;;12.87;90.49;97502.71;109209;1282;22777;-87
2023/10/04 07:45:16;;;;;;;3.30;1.20;;;;;;;12.89;89.48;97505.11;106849;1282;24432;-88
2023/10/04 07:47:43;;;;;;;4.10;1.10;;;;;;;12.91;89.54;97509.67;106834;1270;137550;-88
2023/10/04 07:50:11;;;;;;;2.40;1.10;;;;;;;12.92;89.39;97508.59;106953;1275;23397;-88
2023/10/04 07:52:38;;;;;;;3.40;1.20;;;;;;;12.95;89.23;97508.83;106829;1282;137987;-87
2023/10/04 07:55:05;;;;;;;3.50;1.00;;;;;;;12.99;89.57;97508.72;106916;1282;22543;-88
2023/10/04 07:57:35;;;;;;;3.80;1.40;;;;;;;13.05;89.51;97504.31;106812;1275;137659;-87
2023/10/04 08:00:04;;;;;;;3.10;1.10;;;;;;;13.08;89.06;97505.30;106892;1276;22651;-87
2023/10/04 08:02:31;;;;;;;3.30;1.40;;;;;;;13.10;88.15;97505.90;109934;1282;22435;-88
2023/10/04 08:04:57;;;;;;;3.60;1.50;;;;;;;13.13;88.37;97505.62;107165;1282;138061;-88
2023/10/04 08:07:24;;;;;;;3.00;1.10;;;;;;;13.17;88.99;97505.34;106968;1280;24059;-88
2023/10/04 08:09:52;;;;;;;3.30;1.20;;;;;;;13.23;89.08;97508.75;106880;1283;138968;-87
2023/10/04 08:12:20;;;;;;;3.90;1.10;;;;;;;13.27;88.88;97507.39;106991;1282;22550;-88
2023/10/04 08:14:47;;;;;;;3.00;1.20;;;;;;;13.32;88.81;97506.80;106993;1283;24334;-87
2023/10/04 08:17:16;;;;;;;4.80;1.60;;;;;;;13.39;88.60;97505.90;106866;1282;137843;-88
2023/10/04 08:19:43;;;;;;;2.70;1.20;;;;;;;13.45;87.95;97515.27;106894;1282;23885;-88
2023/10/04 08:22:09;;;;;;;3.40;1.30;;;;;;;13.46;86.85;97514.95;106904;1259;138530;-87
2023/10/04 08:24:37;;;;;;;3.70;1.00;;;;;;;13.46;86.59;97516.88;106983;1282;22542;-88
2023/10/04 08:27:04;;;;;;;3.20;1.30;;;;;;;13.48;86.70;97520.15;106954;1282;23881;-87
2023/10/04 08:29:34;;;;;;;3.70;1.30;;;;;;;13.48;86.02;97520.52;106892;1276;137562;-88
2023/10/04 08:32:00;;;;;;;2.90;1.10;;;;;;;13.51;85.46;97524.17;107026;1282;24222;-88
2023/10/04 08:34:27;;;;;;;3.30;1.10;;;;;;;13.57;85.52;97530.66;106863;1281;138393;-87
2023/10/04 08:36:53;;;;;;;2.80;0.90;;;;;;;13.63;84.64;97535.21;106967;1268;22544;-88
2023/10/04 08:39:20;;;;;;;2.10;1.20;;;;;;;13.67;84.93;97536.52;106956;1282;26117;-88
2023/10/04 08:41:48;;;;;;;3.30;1.10;;;;;;;13.70;84.93;97539.95;106800;1275;137889;-87
2023/10/04 08:44:15;;;;;;;3.10;1.60;;;;;;;13.73;84.36;97540.69;107040;1269;22581;-88
2023/10/04 08:46:43;;;;;;;3.70;1.20;;;;;;;13.72;84.01;97535.16;106882;1282;137564;-88
2023/10/04 08:49:10;;;;;;;3.50;1.60;;;;;;;13.72;83.49;97531.02;109976;1281;22300;-89
2023/10/04 08:51:50;;;;;;;3.00;1.50;;;;;;;13.71;83.30;97538.05;109231;1282;137703;-88
2023/10/04 08:54:21;;;;;;;2.90;1.30;;;;;;;13.72;83.78;97536.65;109975;1282;22179;-89
2023/10/04 08:57:14;;;;;;;4.20;1.40;;;;;;;13.72;83.91;97536.41;109939;1282;23006;-88
2023/10/04 08:59:41;;;;;;;2.70;1.60;;;;;;;13.73;84.32;97537.41;107326;1282;138101;-88
2023/10/04 09:02:09;;;;;;;4.00;1.10;;;;;;;13.72;84.42;97529.30;106955;1282;22551;-88
2023/10/04 09:04:35;;;;;;;3.50;1.10;;;;;;;13.74;84.37;97523.86;106886;1275;138039;-88
2023/10/04 09:07:02;;;;;;;3.30;1.30;;;;;;;13.76;84.39;97516.06;106925;1282;22612;-88
2023/10/04 09:09:31;;;;;;;3.10;1.20;;;;;;;13.78;83.54;97511.91;106880;1282;138089;-87
2023/10/04 09:11:58;;;;;;;2.70;1.00;;;;;;;13.80;83.31;97503.10;107014;1281;22540;-88
2023/10/04 09:14:25;;;;;;;2.70;1.20;;;;;;;13.87;83.87;97501.79;107102;1280;22538;-88
2023/10/04 09:17:05;;;;;;;3.90;1.00;;;;;;;13.96;83.93;97503.61;106893;1280;137478;-88
2023/10/04 09:19:32;;;;;;;3.30;1.20;;;;;;;14.02;82.69;97509.17;107078;1279;22950;-88
2023/10/04 09:22:05;;;;;;;2.50;1.00;;;;;;;14.01;81.61;97501.95;106945;1281;138442;-88
2023/10/04 09:24:35;;;;;;;2.50;1.20;;;;;;;14.03;82.09;97500.53;108736;1281;22769;-88
2023/10/04 09:27:01;;;;;;;4.10;1.30;;;;;;;14.06;81.83;97503.30;106978;1281;22583;-87
2023/10/04 09:29:32;;;;;;;3.20;1.10;;;;;;;14.09;82.00;97504.88;106992;1281;138459;-88
2023/10/04 09:31:59;;;;;;;2.20;1.10;;;;;;;14.07;80.90;97505.05;107046;1280;24262;-88
2023/10/04 09:34:28;;;;;;;2.10;1.20;;;;;;;14.05;81.02;97498.88;106887;1281;137508;-88
2023/10/04 09:36:55;;;;;;;3.00;1.10;;;;;;;14.04;80.44;97501.84;106924;1281;24215;-88
2023/10/04 09:39:27;;;;;;;2.00;1.00;;;;;;;14.04;80.98;97497.54;107074;1281;22590;-88
2023/10/04 09:41:55;;;;;;;2.70;1.20;;;;;;;14.09;81.20;97493.86;110067;1281;22327;-88
2023/10/04 09:44:26;;;;;;;1.70;1.00;;;;;;;14.14;81.09;97487.88;107649;1274;22530;-88
2023/10/04 09:46:56;;;;;;;2.80;1.10;;;;;;;14.20;81.29;97489.83;106882;1281;137806;-88
2023/10/04 09:49:28;;;;;;;2.90;1.30;;;;;;;14.24;81.64;97500.42;107040;1280;22594;-88
2023/10/04 09:51:55;;;;;;;3.10;1.30;;;;;;;14.28;80.94;97499.99;106886;1281;138254;-87
2023/10/04 09:54:23;;;;;;;3.00;1.30;;;;;;;14.31;80.45;97503.02;107043;1274;25802;-87
2023/10/04 09:56:51;;;;;;;2.50;1.30;;;;;;;14.30;80.01;97510.12;107078;1265;25476;-88
2023/10/04 09:59:19;;;;;;;2.80;1.40;;;;;;;14.26;79.58;97502.93;106951;1280;138897;-87
2023/10/04 10:01:56;;;;;;;3.20;1.10;;;;;;;14.27;79.64;97497.33;106993;1281;22577;-88
2023/10/04 10:04:29;;;;;;;2.70;1.30;;;;;;;14.31;79.91;97500.50;106964;1281;138706;-88
2023/10/04 10:07:13;;;;;;;3.60;1.40;;;;;;;14.34;79.53;97500.88;107048;1278;22543;-88
2023/10/04 10:09:51;;;;;;;3.00;1.40;;;;;;;14.33;79.92;97495.23;109925;1273;139225;-88
2023/10/04 10:12:17;;;;;;;2.90;1.20;;;;;;;14.35;80.88;97500.40;110000;1275;22197;-88
2023/10/04 10:14:45;;;;;;;2.30;1.10;;;;;;;14.33;79.32;97497.85;110003;1281;22930;-88
2023/10/04 10:17:12;;;;;;;6.30;1.30;;;;;;;14.30;79.43;97501.88;109872;1281;138492;-88
2023/10/04 10:19:39;;;;;;;3.90;1.20;;;;;;;14.32;79.99;97500.96;108125;1281;22732;-88
2023/10/04 10:22:16;;;;;;;4.20;1.30;;;;;;;14.35;80.44;97503.55;106938;1281;138198;-88
2023/10/04 10:24:45;;;;;;;2.30;1.40;;;;;;;14.42;80.14;97505.66;107057;1273;22859;-87
2023/10/04 10:27:12;;;;;;;1.70;1.20;;;;;;;14.51;80.88;97497.45;107024;1275;24325;-88
2023/10/04 10:29:40;;;;;;;3.20;1.00;;;;;;;14.59;81.40;97493.09;106933;1281;138250;-88
2023/10/04 10:32:17;;;;;;;1.90;1.20;;;;;;;14.68;79.85;97491.83;106957;1281;22531;-87
2023/10/04 10:34:44;;;;;;;4.40;1.90;;;;;;;14.74;79.55;97496.20;106843;1278;139087;-88
2023/10/04 10:37:24;;;;;;;4.10;1.40;;;;;;;14.76;79.16;97498.64;107009;1266;22580;-88
2023/10/04 10:40:02;;;;;;;3.20;1.00;;;;;;;14.81;79.53;97502.28;106893;1281;138626;-88
2023/10/04 10:42:28;;;;;;;4.20;1.30;;;;;;;14.87;79.10;97497.95;107129;1280;22675;-87
2023/10/04 10:45:26;;;;;;;2.30;1.00;;;;;;;14.92;78.10;97500.23;106990;1281;23183;-87
2023/10/04 10:47:56;;;;;;;3.50;1.40;;;;;;;14.93;76.96;97496.17;108230;1281;137798;-89
2023/10/04 10:50:33;;;;;;;3.10;1.20;;;;;;;14.96;76.32;97499.88;107021;1281;22530;-88
2023/10/04 10:53:08;;;;;;;2.50;1.30;;;;;;;15.05;77.36;97502.40;106815;1281;138481;-88
2023/10/04 10:55:38;;;;;;;4.20;1.20;;;;;;;15.09;75.75;97508.13;107022;1281;22999;-88
2023/10/04 10:58:06;;;;;;;2.70;1.40;;;;;;;15.09;75.89;97507.96;108630;1281;137895;-87
2023/10/04 11:00:36;;;;;;;3.10;1.80;;;;;;;15.11;75.92;97503.55;106985;1275;22530;-88
2023/10/04 11:03:09;;;;;;;3.70;1.60;;;;;;;15.13;76.83;97501.08;107077;1279;25252;-87
2023/10/04 11:05:35;;;;;;;4.60;1.40;;;;;;;15.14;77.15;97503.92;106998;1279;137971;-88
2023/10/04 11:08:06;;;;;;;3.20;1.60;;;;;;;15.13;75.48;97499.52;107001;1281;22552;-87
2023/10/04 11:10:34;;;;;;;2.70;1.30;;;;;;;15.10;75.98;97502.85;106870;1281;140123;-87
2023/10/04 11:13:08;;;;;;;2.70;1.50;;;;;;;15.09;76.34;97501.84;106958;1281;25482;-87
2023/10/04 11:15:36;;;;;;;2.00;1.10;;;;;;;15.09;76.24;97500.23;106946;1281;138126;-88
2023/10/04 11:18:03;;;;;;;3.20;1.50;;;;;;;15.10;76.82;97501.57;110055;1278;22279;-88
2023/10/04 11:20:32;;;;;;;3.10;1.40;;;;;;;15.09;76.46;97497.53;110076;1273;22381;-88
2023/10/04 11:22:58;;;;;;;1.80;1.00;;;;;;;15.11;77.29;97496.75;109949;1280;138199;-89
2023/10/04 11:25:26;;;;;;;3.60;1.50;;;;;;;15.16;76.67;97495.27;107961;1281;22670;-88
2023/10/04 11:27:53;;;;;;;5.50;1.50;;;;;;;15.24;76.52;97492.36;106917;1275;138123;-87
2023/10/04 11:30:23;;;;;;;2.40;1.00;;;;;;;15.31;76.54;97489.42;107030;1281;25329;-88
2023/10/04 11:32:50;;;;;;;1.90;1.00;;;;;;;15.35;75.47;97485.84;109264;1276;23260;-88
2023/10/04 11:35:18;;;;;;;4.30;1.30;;;;;;;15.36;75.23;97486.27;106898;1278;137810;-88
2023/10/04 11:37:46;;;;;;;2.20;1.10;;;;;;;15.40;75.37;97479.29;107070;1280;24458;-87
2023/10/04 11:40:14;;;;;;;3.50;1.40;;;;;;;15.48;74.92;97471.08;106954;1281;139195;-89
2023/10/04 11:42:44;;;;;;;2.70;0.90;;;;;;;15.58;74.44;97471.30;106975;1281;25230;-88
2023/10/04 11:45:18;;;;;;;4.40;1.30;;;;;;;15.67;74.06;97470.41;106998;1281;24220;-88
2023/10/04 11:47:58;;;;;;;2.30;1.10;;;;;;;15.73;74.85;97474.38;106972;1275;137887;-87
2023/10/04 11:50:26;;;;;;;3.50;1.10;;;;;;;15.77;74.43;97474.23;107045;1276;22636;-88
2023/10/04 11:52:56;;;;;;;2.30;1.20;;;;;;;15.76;73.84;97472.49;106878;1259;138858;-88
2023/10/04 11:55:24;;;;;;;3.20;1.40;;;;;;;15.70;73.28;97473.34;107080;1274;23210;-87
2023/10/04 11:57:51;;;;;;;2.80;1.20;;;;;;;15.65;73.22;97469.35;106993;1274;138057;-88
2023/10/04 12:00:19;;;;;;;3.50;1.60;;;;;;;15.64;74.10;97472.81;107027;1281;22550;-88
2023/10/04 12:02:45;;;;;;;2.40;1.30;;;;;;;15.66;74.23;97471.70;107080;1274;22547;-88
2023/10/04 12:05:12;;;;;;;3.10;1.30;;;;;;;15.71;74.36;97473.98;106943;1275;138495;-88
2023/10/04 12:07:38;;;;;;;3.40;1.40;;;;;;;15.76;74.32;97475.58;107002;1281;22545;-87
2023/10/04 12:10:09;;;;;;;2.50;1.20;;;;;;;15.79;74.12;97474.77;106905;1281;138490;-87
2023/10/04 12:12:37;;;;;;;2.90;1.40;;;;;;;15.75;73.91;97479.73;106975;1281;22639;-88
2023/10/04 12:15:07;;;;;;;3.70;1.60;;;;;;;15.71;73.94;97477.45;107078;1281;22650;-87
2023/10/04 12:17:34;;;;;;;3.90;1.40;;;;;;;15.64;73.90;97477.48;106984;1276;138376;-87
2023/10/04 12:20:04;;;;;;;2.40;1.20;;;;;;;15.62;74.30;97477.98;107060;1277;22550;-88
2023/10/04 12:22:31;;;;;;;3.00;1.20;;;;;;;15.58;74.07;97473.59;106873;1281;137931;-88
2023/10/04 12:24:59;;;;;;;2.50;1.40;;;;;;;15.53;74.19;97475.20;107035;1281;25603;-88
2023/10/04 12:27:27;;;;;;;3.10;1.80;;;;;;;15.50;75.17;97470.17;106996;1274;22537;-88
2023/10/04 12:29:53;;;;;;;3.80;1.40;;;;;;;15.53;75.50;97471.48;106821;1273;139085;-88
2023/10/04 12:32:20;;;;;;;3.60;1.40;;;;;;;15.61;75.60;97467.67;107126;1274;25415;-88
2023/10/04 12:34:46;;;;;;;3.70;1.60;;;;;;;15.64;75.89;97467.48;106953;1281;137792;-88
2023/10/04 12:37:13;;;;;;;4.50;1.50;;;;;;;15.61;74.73;97467.84;106979;1279;25354;-88
2023/10/04 12:39:43;;;;;;;3.20;2.10;;;;;;;15.54;73.67;97469.64;106970;1281;138028;-87
2023/10/04 12:42:09;;;;;;;2.60;1.40;;;;;;;15.48;73.87;97463.10;107060;1281;22560;-88
2023/10/04 12:44:37;;;;;;;4.40;1.80;;;;;;;15.41;73.97;97459.55;106972;1275;24243;-87
2023/10/04 12:47:05;;;;;;;2.00;1.40;;;;;;;15.39;74.63;97455.86;106874;1276;138947;-87
2023/10/04 12:49:31;;;;;;;4.90;1.60;;;;;;;15.40;75.19;97447.54;106971;1281;22607;-87
2023/10/04 12:51:58;;;;;;;2.50;1.40;;;;;;;15.46;74.83;97444.63;106964;1281;137937;-88
2023/10/04 12:54:25;;;;;;;3.50;1.40;;;;;;;15.53;75.27;97446.42;106970;1270;22655;-87
2023/10/04 12:56:52;;;;;;;3.70;1.20;;;;;;;15.62;75.63;97445.77;110046;1281;22220;-88
2023/10/04 12:59:19;;;;;;;4.50;1.50;;;;;;;15.72;75.54;97446.66;109947;1275;138544;-88
2023/10/04 13:01:45;;;;;;;2.60;1.40;;;;;;;15.77;74.70;97448.73;109391;1281;26787;-88
2023/10/04 13:04:12;;;;;;;4.40;1.30;;;;;;;15.84;74.82;97451.73;106958;1281;137984;-88
2023/10/04 13:06:39;;;;;;;2.60;1.20;;;;;;;15.88;73.57;97448.90;107000;1276;23320;-88
2023/10/04 13:09:15;;;;;;;4.90;1.80;;;;;;;15.95;74.34;97451.67;107001;1281;24193;-88
2023/10/04 13:11:41;;;;;;;2.50;1.30;;;;;;;15.96;73.62;97450.93;106946;1269;142131;-89
2023/10/04 13:14:08;;;;;;;2.10;1.10;;;;;;;15.97;73.38;97451.16;107004;1279;22559;-87
2023/10/04 13:16:34;;;;;;;2.10;1.10;;;;;;;16.00;73.02;97449.65;106952;1280;137823;-88
2023/10/04 13:19:01;;;;;;;4.00;1.40;;;;;;;16.00;72.72;97450.75;107055;1281;22991;-88
2023/10/04 13:21:28;;;;;;;4.30;1.30;;;;;;;15.99;72.55;97456.55;107131;1281;22565;-88
2023/10/04 13:23:55;;;;;;;3.50;1.20;;;;;;;15.93;71.71;97451.27;109907;1281;137299;-88
2023/10/04 13:26:22;;;;;;;2.70;1.60;;;;;;;15.95;72.67;97446.75;110049;1281;22846;-88
2023/10/04 13:28:48;;;;;;;2.20;1.20;;;;;;;15.99;72.45;97449.89;107037;1281;137368;-87
2023/10/04 13:31:15;;;;;;;3.70;1.40;;;;;;;16.01;71.57;97447.56;107097;1278;22601;-88
2023/10/04 13:33:42;;;;;;;2.90;1.60;;;;;;;16.00;71.13;97444.37;106910;1276;137752;-89
2023/10/04 13:36:09;;;;;;;3.80;1.50;;;;;;;15.99;70.60;97443.96;107039;1281;22557;-87
2023/10/04 13:38:35;;;;;;;2.70;1.00;;;;;;;15.97;69.97;97434.63;107049;1281;25485;-87
2023/10/04 13:41:02;;;;;;;3.40;1.20;;;;;;;15.94;70.79;97431.09;106942;1277;138053;-88
2023/10/04 13:43:30;;;;;;;4.30;1.90;;;;;;;15.93;71.72;97429.66;107000;1273;26000;-87
2023/10/04 13:45:56;;;;;;;4.50;2.00;;;;;;;15.90;71.45;97430.86;106962;1280;137249;-87
2023/10/04 13:48:23;;;;;;;4.50;2.00;;;;;;;15.89;70.71;97431.73;107042;1281;22616;-88
2023/10/04 13:50:51;;;;;;;5.70;2.10;;;;;;;15.91;72.03;97433.60;107015;1281;24227;-88
2023/10/04 13:53:20;;;;;;;3.30;1.30;;;;;;;15.96;71.77;97438.41;106933;1281;137293;-88
2023/10/04 13:55:49;;;;;;;3.90;1.30;;;;;;;15.98;71.48;97443.75;110028;1275;22177;-88
2023/10/04 13:58:22;;;;;;;3.00;1.20;;;;;;;15.99;70.82;97446.63;108580;1280;137501;-88
2023/10/04 14:00:53;;;;;;;1.70;1.00;;;;;;;16.01;70.51;97453.17;107021;1281;24407;-88
2023/10/04 14:03:21;;;;;;;2.70;1.30;;;;;;;16.04;69.43;97453.30;107010;1281;22612;-87
2023/10/04 14:05:53;;;;;;;2.50;1.10;;;;;;;16.08;69.40;97449.59;106893;1281;136915;-88
2023/10/04 14:08:20;;;;;;;2.20;1.30;;;;;;;16.16;68.81;97445.17;107079;1281;22549;-86
2023/10/04 14:10:47;;;;;;;3.60;1.20;;;;;;;16.16;66.93;97439.86;106808;1274;137193;-88
2023/10/04 14:13:15;;;;;;;2.70;1.30;;;;;;;16.12;66.77;97427.15;107026;1281;22537;-87
2023/10/04 14:15:42;;;;;;;4.20;1.50;;;;;;;16.07;67.15;97420.54;106974;1281;137657;-87
2023/10/04 14:18:08;;;;;;;4.60;2.00;;;;;;;16.04;67.84;97422.21;107063;1281;24265;-87
2023/10/04 14:20:35;;;;;;;2.40;1.30;;;;;;;16.03;68.39;97419.42;107094;1280;23771;-88
2023/10/04 14:23:07;;;;;;;3.30;1.50;;;;;;;16.03;67.96;97422.33;106997;1275;137069;-87
2023/10/04 14:25:34;;;;;;;2.70;1.40;;;;;;;16.02;68.71;97424.66;107018;1281;22631;-88
2023/10/04 14:28:01;;;;;;;3.40;1.70;;;;;;;16.02;68.30;97425.59;109879;1278;138431;-89
2023/10/04 14:30:28;;;;;;;3.30;1.20;;;;;;;15.99;68.47;97427.51;110055;1281;22160;-88
2023/10/04 14:32:56;;;;;;;2.70;1.00;;;;;;;16.00;69.16;97426.74;107789;1280;22624;-89
2023/10/04 14:35:24;;;;;;;4.10;1.10;;;;;;;15.98;68.56;97431.54;106889;1281;137184;-88
2023/10/04 14:37:50;;;;;;;4.00;1.90;;;;;;;15.95;70.76;97435.71;107052;1276;24248;-89
2023/10/04 14:40:18;;;;;;;2.80;1.40;;;;;;;15.91;69.12;97443.55;106881;1259;137715;-88
2023/10/04 14:42:48;;;;;;;2.40;1.30;;;;;;;15.83;67.54;97446.85;107017;1281;24186;-88
2023/10/04 14:45:18;;;;;;;2.60;1.10;;;;;;;15.73;67.04;97442.73;106997;1278;22604;-87
2023/10/04 14:47:44;;;;;;;2.80;1.20;;;;;;;15.65;66.61;97446.90;106913;1281;137412;-89
2023/10/04 14:50:13;;;;;;;2.40;1.20;;;;;;;15.61;67.73;97448.23;107114;1281;22650;-88
2023/10/04 14:52:43;;;;;;;2.50;1.20;;;;;;;15.56;66.16;97450.08;106974;1275;137720;-89
2023/10/04 14:55:10;;;;;;;3.20;1.10;;;;;;;15.52;66.93;97453.59;107095;1280;22535;-88
2023/10/04 14:57:38;;;;;;;4.00;1.40;;;;;;;15.49;66.54;97457.27;106917;1280;138302;-88
2023/10/04 15:00:27;;;;;;;4.90;1.90;;;;;;;15.48;67.11;97460.17;107825;1281;22533;-88
2023/10/04 15:02:56;;;;;;;5.60;2.80;;;;;;;15.48;66.77;97460.81;107062;1278;25414;-88
2023/10/04 15:05:23;;;;;;;5.00;2.40;;;;;;;15.47;66.87;97459.60;107082;1278;137127;-88
2023/10/04 15:07:52;;;;;;;4.10;1.90;;;;;;;15.44;66.71;97459.17;107248;1278;24349;-88
2023/10/04 15:10:21;;;;;;;4.90;2.10;;;;;;;15.41;66.78;97458.74;107102;1278;137978;-88
2023/10/04 15:12:48;;;;;;;4.80;2.30;;;;;;;15.41;69.83;97458.90;107121;1278;22644;-88
2023/10/04 15:15:18;;;;;;;3.90;2.30;;;;;;;15.43;71.67;97458.84;107150;1278;23195;-88
2023/10/04 15:17:45;;;;;;;4.00;1.90;;;;;;;15.41;69.50;97460.88;107114;1272;137242;-88
2023/10/04 15:20:13;;;;;;;4.10;1.70;;;;;;;15.35;70.35;97465.62;107099;1278;23508;-88
2023/10/04 15:22:40;;;;;;;4.30;1.30;;;;;;;15.30;69.84;97471.93;107113;1276;137901;-88
2023/10/04 15:25:11;;;;;;;4.20;1.80;;;;;;;15.22;69.01;97479.85;107202;1278;22669;-88
2023/10/04 15:28:11;;;;;;;5.30;2.00;;;;;;;15.15;69.06;97479.83;107034;1278;137350;-88
2023/10/04 15:30:30;;;;;;;7.10;4.40;;;;;;;15.10;68.79;97483.40;107137;1278;26690;-89
2023/10/04 15:32:57;;;;;;;20.20;12.20;;;;;;;15.05;70.45;97487.67;107246;1278;23275;-88
2023/10/04 15:35:27;;;;;;;13.90;8.30;;;;;;;14.98;71.90;97485.30;107146;1278;137544;-88
2023/10/04 15:37:57;;;;;;;7.70;5.00;;;;;;;14.91;74.49;97485.31;107217;1273;22601;-88
2023/10/04 15:40:27;;;;;;;5.10;2.40;;;;;;;14.82;75.46;97486.18;110042;1278;138389;-89
2023/10/04 15:42:54;;;;;;;4.20;2.90;;;;;;;14.74;75.81;97494.47;110246;1278;22907;-89
2023/10/04 15:45:21;;;;;;;3.80;1.90;;;;;;;14.66;76.92;97496.34;107914;1278;22615;-89
2023/10/04 15:47:48;;;;;;;2.80;1.80;;;;;;;14.60;77.85;97497.56;107080;1277;138155;-89
2023/10/04 15:50:17;;;;;;;5.70;2.10;;;;;;;14.53;78.68;97493.98;107067;1278;25509;-89
2023/10/04 15:52:44;;;;;;;3.30;1.60;;;;;;;14.47;79.10;97495.48;107080;1278;138383;-88
2023/10/04 15:55:12;;;;;;;4.30;1.80;;;;;;;14.38;79.95;97494.13;107131;1278;22589;-88
2023/10/04 15:57:40;;;;;;;4.00;1.90;;;;;;;14.31;80.13;97497.20;107046;1272;138016;-88
2023/10/04 16:00:11;;;;;;;4.90;1.70;;;;;;;14.25;80.75;97491.86;109823;1278;24203;-88
2023/10/04 16:02:38;;;;;;;4.30;1.80;;;;;;;14.20;81.48;97490.52;107134;1278;22532;-89
2023/10/04 16:05:10;;;;;;;6.20;2.20;;;;;;;14.14;81.42;97490.52;107072;1278;138039;-87
2023/10/04 16:07:37;;;;;;;2.50;1.30;;;;;;;14.06;81.56;97489.00;108386;1278;22539;-88
2023/10/04 16:10:05;;;;;;;4.00;1.70;;;;;;;14.00;82.41;97491.01;106967;1278;138255;-88
2023/10/04 16:12:33;;;;;;;2.80;1.70;;;;;;;13.92;82.56;97493.36;107200;1278;22547;-88
2023/10/04 16:15:00;;;;;;;3.10;1.70;;;;;;;13.81;82.78;97490.47;107263;1277;22561;-88
2023/10/04 16:17:28;;;;;;;4.40;2.10;;;;;;;13.73;83.19;97491.42;107097;1273;138139;-88
2023/10/04 16:19:54;;;;;;;4.30;2.30;;;;;;;13.64;83.34;97492.73;107141;1278;22700;-88
2023/10/04 16:22:21;;;;;;;3.40;2.00;;;;;;;13.57;83.59;97494.98;107082;1275;137877;-88
2023/10/04 16:24:48;;;;;;;5.70;1.90;;;;;;;13.49;83.40;97497.80;107191;1278;25176;-88
2023/10/04 16:27:14;;;;;;;4.90;2.00;;;;;;;13.40;83.27;97499.10;107244;1278;22534;-88
2023/10/04 16:29:41;;;;;;;5.00;1.80;;;;;;;13.30;83.60;97500.05;106964;1278;139301;-89
2023/10/04 16:32:08;;;;;;;5.20;2.00;;;;;;;13.22;83.71;97499.79;107260;1278;25658;-89
2023/10/04 16:34:36;;;;;;;4.50;1.90;;;;;;;13.14;84.50;97498.86;107144;1277;137904;-88
2023/10/04 16:37:03;;;;;;;4.10;1.90;;;;;;;13.07;84.67;97500.38;107114;1278;22686;-88
2023/10/04 16:39:29;;;;;;;4.80;1.80;;;;;;;12.98;84.89;97497.20;109498;1278;22533;-89
2023/10/04 16:41:56;;;;;;;3.80;2.00;;;;;;;12.86;84.71;97494.91;106975;1278;138362;-88
2023/10/04 16:44:24;;;;;;;4.10;2.10;;;;;;;12.74;84.63;97494.45;107228;1273;23580;-88
2023/10/04 16:46:50;;;;;;;3.60;2.10;;;;;;;12.69;85.51;97495.91;107115;1278;138101;-88
2023/10/04 16:49:18;;;;;;;4.20;2.00;;;;;;;12.67;85.66;97495.58;110142;1276;22191;-89
2023/10/04 16:51:44;;;;;;;5.50;2.10;;;;;;;12.60;85.81;97501.19;107351;1272;138955;-88
2023/10/04 16:54:11;;;;;;;4.60;2.10;;;;;;;12.53;86.24;97499.98;107169;1278;24685;-89
2023/10/04 16:56:37;;;;;;;4.00;2.00;;;;;;;12.46;86.68;97498.70;107177;1278;22760;-88
2023/10/04 16:59:04;;;;;;;5.30;2.40;;;;;;;12.41;87.28;97497.68;107295;1277;137867;-88
2023/10/04 17:01:31;;;;;;;4.80;1.90;;;;;;;12.37;87.32;97501.11;107273;1273;22530;-88
2023/10/04 17:03:58;;;;;;;5.40;2.60;;;;;;;12.33;87.54;97502.50;107100;1278;138048;-88
2023/10/04 17:06:27;;;;;;;3.60;2.20;;;;;;;12.31;87.77;97508.66;107236;1273;22531;-88
2023/10/04 17:08:54;;;;;;;4.50;2.40;;;;;;;12.27;88.07;97510.66;107210;1278;24535;-88
2023/10/04 17:11:21;;;;;;;4.40;2.10;;;;;;;12.25;88.49;97506.02;107100;1266;138807;-89
2023/10/04 17:13:47;;;;;;;3.60;2.10;;;;;;;12.24;88.59;97507.90;107136;1278;22550;-88
2023/10/04 17:16:14;;;;;;;4.00;2.10;;;;;;;12.20;88.27;97501.77;107165;1278;138076;-89
2023/10/04 17:18:41;;;;;;;4.70;2.30;;;;;;;12.13;88.49;97500.50;107235;1278;24404;-88
2023/10/04 17:21:10;;;;;;;3.50;2.10;;;;;;;12.08;88.67;97501.14;107342;1273;24398;-88
2023/10/04 17:23:37;;;;;;;4.60;2.20;;;;;;;12.02;88.80;97496.48;107159;1278;138315;-88
2023/10/04 17:26:06;;;;;;;4.40;2.20;;;;;;;11.95;88.94;97496.74;107260;1272;22527;-88
2023/10/04 17:28:33;;;;;;;3.90;2.20;;;;;;;11.90;89.16;97503.36;107116;1275;137864;-88
2023/10/04 17:31:00;;;;;;;3.80;2.20;;;;;;;11.88;89.46;97500.33;107252;1277;24397;-88
2023/10/04 17:33:27;;;;;;;4.40;2.30;;;;;;;11.86;89.17;97500.14;107167;1272;23482;-88
2023/10/04 17:35:54;;;;;;;5.80;2.80;;;;;;;11.82;89.14;97506.27;110011;1278;137805;-88
2023/10/04 17:38:21;;;;;;;3.30;1.90;;;;;;;11.78;89.35;97509.02;107622;1278;22529;-88
2023/10/04 17:40:47;;;;;;;5.80;3.00;;;;;;;11.79;89.55;97505.28;107150;1278;137912;-88
2023/10/04 17:43:14;;;;;;;2.90;2.00;;;;;;;11.77;89.59;97504.20;107299;1271;22533;-88
2023/10/04 17:45:41;;;;;;;5.20;1.90;;;;;;;11.76;89.81;97504.67;107096;1273;138484;-88
2023/10/04 17:48:07;;;;;;;4.30;2.20;;;;;;;11.74;89.83;97502.07;107222;1278;22549;-88
2023/10/04 17:50:35;;;;;;;5.80;2.00;;;;;;;11.72;89.96;97503.52;107152;1278;22596;-88
2023/10/04 17:53:02;;;;;;;3.60;2.30;;;;;;;11.70;90.35;97505.37;107071;1278;137841;-88
2023/10/04 17:55:30;;;;;;;4.20;2.10;;;;;;;11.71;90.33;97508.48;107171;1278;24250;-88
2023/10/04 17:57:57;;;;;;;3.80;1.80;;;;;;;11.67;90.21;97508.66;110051;1278;139081;-89
2023/10/04 18:00:23;;;;;;;5.10;2.20;;;;;;;11.66;90.37;97508.27;110214;1278;22955;-89
2023/10/04 18:02:51;;;;;;;4.60;2.40;;;;;;;11.70;90.72;97513.44;109381;1278;22546;-89
2023/10/04 18:05:17;;;;;;;4.00;2.10;;;;;;;11.72;90.68;97519.30;107066;1269;137960;-88
2023/10/04 18:07:44;;;;;;;4.80;2.10;;;;;;;11.73;90.91;97519.59;107234;1278;22533;-88
2023/10/04 18:10:15;;;;;;;4.20;2.10;;;;;;;11.72;91.08;97526.06;107075;1278;138778;-89
2023/10/04 18:12:42;;;;;;;4.60;2.30;;;;;;;11.71;91.20;97528.43;107207;1278;24342;-88
2023/10/04 18:15:10;;;;;;;4.00;2.00;;;;;;;11.69;91.39;97528.05;107211;1278;24372;-88
2023/10/04 18:17:37;;;;;;;3.40;2.40;;;;;;;11.66;91.55;97527.24;107167;1278;137890;-87
2023/10/04 18:20:07;;;;;;;3.70;2.30;;;;;;;11.64;91.84;97525.91;107227;1273;22627;-88